Hlavní strana
METAR-TAF:

METAR-TAF

Letiště :

Letiště Rijeka

Rijeka, Chorvatsko

zeměpisná šířka: 45-13N, zeměpisná délka: 014-35E, výška: 85 m

Aktuální stav počasí

Zpráva byla vytvořena před 30 minutami, v 20:30 UTC
Jihojihovýchodní vítr 3 kt, proměnlivý mezi východním a jihojihozápadním
Teplota 28°C
Vlhkost vzduchu 48%
Tlak 1016 hPa
Viditelnost 10 km a více
Žádná oblačnost pod 1500 m, nevyskytují se cumulonimby.

METAR: LDRI 192030Z 15003KT 090V210 CAVOK 28/16 Q1016

Čas: 23:00 (21:00 UTC)

Předpověď počasí

Zpráva byla vytvořena před 3 hodinami a 35 minutami, v 17:25 UTC
Předpověď platná od 19 v 18 UTC do 20 v 18 UTC
Východoseverovýchodní vítr 8 kt
Viditelnost 10 km a více
Žádná oblačnost pod 1500 m, nevyskytují se cumulonimby.
Pravděpodobnost 40% :
Dočasný
od 20 v 08 UTC do 20 v 16 UTC
Jihovýchodní vítr 8 kt

TAF: LDRI 191725Z 1918/2018 06008KT CAVOK TX33/2012Z TN23/2003Z PROB40 TEMPO 2008/2016 14008KT

Stav a předpovědi počasí z více než 4 000 letišť (zprávy METAR a TAF).

Červené a žluté tečky na mapě představují dostupné meteorologické stanice.

Když kurzor umístíte na tečku, zobrazí se název stanice.

Pak kliknutím zobrazíte stav a předpověď počasí.

Chcete-li změnit mapu, kliknutím na zelené tlačítko se znaménkem +mapu přiblížíte, kliknutím na zelené tlačítko se znaménkem – mapu oddálíte a kliknutím na zelené šipky přejdete na sousední mapy.


METAR-TAF: